sensor_id;sensor_type;location;lat;lon;timestamp;pressure;altitude;pressure_sealevel;temperature
17716;BMP280;50159;49.426;11.182;2023-07-13T00:01:54;97433.69;;;22.38
17716;BMP280;50159;49.426;11.182;2023-07-13T00:04:24;97428.00;;;22.35
17716;BMP280;50159;49.426;11.182;2023-07-13T00:06:53;97417.38;;;22.35
17716;BMP280;50159;49.426;11.182;2023-07-13T00:09:21;97426.34;;;22.34
17716;BMP280;50159;49.426;11.182;2023-07-13T00:11:53;97413.31;;;22.32
17716;BMP280;50159;49.426;11.182;2023-07-13T00:14:21;97394.97;;;22.31
17716;BMP280;50159;49.426;11.182;2023-07-13T00:16:48;97399.25;;;22.32
17716;BMP280;50159;49.426;11.182;2023-07-13T00:19:15;97398.63;;;22.30
17716;BMP280;50159;49.426;11.182;2023-07-13T00:21:42;97409.38;;;22.28
17716;BMP280;50159;49.426;11.182;2023-07-13T00:24:14;97403.28;;;22.28
17716;BMP280;50159;49.426;11.182;2023-07-13T00:26:42;97399.41;;;22.24
17716;BMP280;50159;49.426;11.182;2023-07-13T00:29:13;97397.97;;;22.22
17716;BMP280;50159;49.426;11.182;2023-07-13T00:31:40;97405.28;;;22.20
17716;BMP280;50159;49.426;11.182;2023-07-13T00:34:07;97404.69;;;22.18
17716;BMP280;50159;49.426;11.182;2023-07-13T00:36:34;97411.97;;;22.16
17716;BMP280;50159;49.426;11.182;2023-07-13T00:39:02;97417.69;;;22.13
17716;BMP280;50159;49.426;11.182;2023-07-13T00:41:31;97417.25;;;22.09
17716;BMP280;50159;49.426;11.182;2023-07-13T00:43:58;97422.13;;;22.06
17716;BMP280;50159;49.426;11.182;2023-07-13T00:46:28;97429.47;;;22.04
17716;BMP280;50159;49.426;11.182;2023-07-13T00:49:02;97437.78;;;22.01
17716;BMP280;50159;49.426;11.182;2023-07-13T00:51:39;97444.50;;;21.97
17716;BMP280;50159;49.426;11.182;2023-07-13T00:54:14;97444.84;;;21.94
17716;BMP280;50159;49.426;11.182;2023-07-13T00:56:45;97452.19;;;21.92
17716;BMP280;50159;49.426;11.182;2023-07-13T00:59:16;97444.22;;;21.92
17716;BMP280;50159;49.426;11.182;2023-07-13T01:01:44;97437.94;;;21.93
17716;BMP280;50159;49.426;11.182;2023-07-13T01:04:11;97429.16;;;21.93
17716;BMP280;50159;49.426;11.182;2023-07-13T01:06:40;97429.53;;;21.90
17716;BMP280;50159;49.426;11.182;2023-07-13T01:09:08;97426.44;;;21.86
17716;BMP280;50159;49.426;11.182;2023-07-13T01:11:35;97426.03;;;21.83
17716;BMP280;50159;49.426;11.182;2023-07-13T01:14:03;97429.25;;;21.78
17716;BMP280;50159;49.426;11.182;2023-07-13T01:16:34;97428.00;;;21.75
17716;BMP280;50159;49.426;11.182;2023-07-13T01:19:12;97424.13;;;21.71
17716;BMP280;50159;49.426;11.182;2023-07-13T01:21:41;97423.25;;;21.64
17716;BMP280;50159;49.426;11.182;2023-07-13T01:24:09;97417.91;;;21.57
17716;BMP280;50159;49.426;11.182;2023-07-13T01:26:36;97425.78;;;21.51
17716;BMP280;50159;49.426;11.182;2023-07-13T01:29:03;97418.63;;;21.45
17716;BMP280;50159;49.426;11.182;2023-07-13T01:31:30;97423.66;;;21.40
17716;BMP280;50159;49.426;11.182;2023-07-13T01:33:56;97412.84;;;21.35
17716;BMP280;50159;49.426;11.182;2023-07-13T01:36:24;97412.59;;;21.31
17716;BMP280;50159;49.426;11.182;2023-07-13T01:38:51;97422.31;;;21.24
17716;BMP280;50159;49.426;11.182;2023-07-13T01:41:18;97426.31;;;21.20
17716;BMP280;50159;49.426;11.182;2023-07-13T01:43:45;97424.06;;;21.17
17716;BMP280;50159;49.426;11.182;2023-07-13T01:46:11;97407.72;;;21.13
17716;BMP280;50159;49.426;11.182;2023-07-13T01:48:50;97416.06;;;21.10
17716;BMP280;50159;49.426;11.182;2023-07-13T01:51:17;97414.34;;;21.03
17716;BMP280;50159;49.426;11.182;2023-07-13T01:53:44;97422.84;;;20.99
17716;BMP280;50159;49.426;11.182;2023-07-13T01:56:12;97417.50;;;20.92
17716;BMP280;50159;49.426;11.182;2023-07-13T01:58:39;97417.63;;;20.85
17716;BMP280;50159;49.426;11.182;2023-07-13T02:01:06;97421.03;;;20.79
17716;BMP280;50159;49.426;11.182;2023-07-13T02:03:33;97414.84;;;20.72
17716;BMP280;50159;49.426;11.182;2023-07-13T02:06:00;97431.28;;;20.67
17716;BMP280;50159;49.426;11.182;2023-07-13T02:08:27;97437.09;;;20.63
17716;BMP280;50159;49.426;11.182;2023-07-13T02:10:53;97424.25;;;20.60
17716;BMP280;50159;49.426;11.182;2023-07-13T02:13:23;97426.47;;;20.57
17716;BMP280;50159;49.426;11.182;2023-07-13T02:15:52;97436.75;;;20.52
17716;BMP280;50159;49.426;11.182;2023-07-13T02:18:19;97432.41;;;20.44
17716;BMP280;50159;49.426;11.182;2023-07-13T02:20:45;97424.38;;;20.38
17716;BMP280;50159;49.426;11.182;2023-07-13T02:23:12;97423.94;;;20.35
17716;BMP280;50159;49.426;11.182;2023-07-13T02:25:39;97426.56;;;20.35
17716;BMP280;50159;49.426;11.182;2023-07-13T02:28:06;97429.41;;;20.33
17716;BMP280;50159;49.426;11.182;2023-07-13T02:30:35;97429.78;;;20.30
17716;BMP280;50159;49.426;11.182;2023-07-13T02:33:01;97427.66;;;20.26
17716;BMP280;50159;49.426;11.182;2023-07-13T02:35:29;97432.69;;;20.21
17716;BMP280;50159;49.426;11.182;2023-07-13T02:37:55;97427.16;;;20.16
17716;BMP280;50159;49.426;11.182;2023-07-13T02:40:23;97432.16;;;20.11
17716;BMP280;50159;49.426;11.182;2023-07-13T02:42:49;97432.72;;;20.07
17716;BMP280;50159;49.426;11.182;2023-07-13T02:45:16;97441.34;;;20.01
17716;BMP280;50159;49.426;11.182;2023-07-13T02:47:43;97444.16;;;19.99
17716;BMP280;50159;49.426;11.182;2023-07-13T02:50:10;97441.09;;;19.96
17716;BMP280;50159;49.426;11.182;2023-07-13T02:52:37;97438.00;;;19.93
17716;BMP280;50159;49.426;11.182;2023-07-13T02:55:04;97447.91;;;19.91
17716;BMP280;50159;49.426;11.182;2023-07-13T02:57:31;97453.53;;;19.88
17716;BMP280;50159;49.426;11.182;2023-07-13T03:00:00;97445.72;;;19.80
17716;BMP280;50159;49.426;11.182;2023-07-13T03:02:27;97451.53;;;19.75
17716;BMP280;50159;49.426;11.182;2023-07-13T03:04:55;97451.25;;;19.71
17716;BMP280;50159;49.426;11.182;2023-07-13T03:07:22;97456.91;;;19.68
17716;BMP280;50159;49.426;11.182;2023-07-13T03:09:55;97467.78;;;19.65
17716;BMP280;50159;49.426;11.182;2023-07-13T03:12:23;97472.41;;;19.63
17716;BMP280;50159;49.426;11.182;2023-07-13T03:14:51;97478.22;;;19.58
17716;BMP280;50159;49.426;11.182;2023-07-13T03:17:18;97478.59;;;19.55
17716;BMP280;50159;49.426;11.182;2023-07-13T03:19:45;97485.88;;;19.53
17716;BMP280;50159;49.426;11.182;2023-07-13T03:22:19;97488.03;;;19.50
17716;BMP280;50159;49.426;11.182;2023-07-13T03:24:48;97493.03;;;19.45
17716;BMP280;50159;49.426;11.182;2023-07-13T03:27:17;97490.94;;;19.41
17716;BMP280;50159;49.426;11.182;2023-07-13T03:29:44;97496.09;;;19.34
17716;BMP280;50159;49.426;11.182;2023-07-13T03:32:11;97497.44;;;19.30
17716;BMP280;50159;49.426;11.182;2023-07-13T03:34:38;97499.94;;;19.24
17716;BMP280;50159;49.426;11.182;2023-07-13T03:37:05;97504.13;;;19.19
17716;BMP280;50159;49.426;11.182;2023-07-13T03:39:32;97508.25;;;19.13
17716;BMP280;50159;49.426;11.182;2023-07-13T03:41:59;97509.97;;;19.07
17716;BMP280;50159;49.426;11.182;2023-07-13T03:44:26;97518.72;;;19.07
17716;BMP280;50159;49.426;11.182;2023-07-13T03:46:53;97513.91;;;19.10
17716;BMP280;50159;49.426;11.182;2023-07-13T03:49:19;97514.72;;;19.11
17716;BMP280;50159;49.426;11.182;2023-07-13T03:51:46;97513.53;;;19.13
17716;BMP280;50159;49.426;11.182;2023-07-13T03:54:15;97516.19;;;19.13
17716;BMP280;50159;49.426;11.182;2023-07-13T03:56:41;97524.09;;;19.13
17716;BMP280;50159;49.426;11.182;2023-07-13T03:59:08;97531.88;;;19.07
17716;BMP280;50159;49.426;11.182;2023-07-13T04:01:35;97535.03;;;19.03
17716;BMP280;50159;49.426;11.182;2023-07-13T04:04:02;97535.19;;;19.01
17716;BMP280;50159;49.426;11.182;2023-07-13T04:06:30;97545.56;;;19.03
17716;BMP280;50159;49.426;11.182;2023-07-13T04:09:00;97542.28;;;19.01
17716;BMP280;50159;49.426;11.182;2023-07-13T04:11:31;97555.28;;;19.02
17716;BMP280;50159;49.426;11.182;2023-07-13T04:13:58;97551.53;;;19.05
17716;BMP280;50159;49.426;11.182;2023-07-13T04:16:25;97556.78;;;19.05
17716;BMP280;50159;49.426;11.182;2023-07-13T04:18:52;97556.13;;;19.03
17716;BMP280;50159;49.426;11.182;2023-07-13T04:21:29;97555.16;;;19.04
17716;BMP280;50159;49.426;11.182;2023-07-13T04:23:57;97550.53;;;19.06
17716;BMP280;50159;49.426;11.182;2023-07-13T04:26:25;97551.16;;;19.07
17716;BMP280;50159;49.426;11.182;2023-07-13T04:28:52;97548.53;;;19.07
17716;BMP280;50159;49.426;11.182;2023-07-13T04:31:19;97550.53;;;19.06
17716;BMP280;50159;49.426;11.182;2023-07-13T04:33:47;97552.34;;;19.05
17716;BMP280;50159;49.426;11.182;2023-07-13T04:36:16;97551.66;;;19.03
17716;BMP280;50159;49.426;11.182;2023-07-13T04:38:43;97555.47;;;19.01
17716;BMP280;50159;49.426;11.182;2023-07-13T04:41:10;97555.66;;;18.99
17716;BMP280;50159;49.426;11.182;2023-07-13T04:43:37;97556.47;;;19.00
17716;BMP280;50159;49.426;11.182;2023-07-13T04:46:11;97559.56;;;19.03
17716;BMP280;50159;49.426;11.182;2023-07-13T04:48:39;97560.06;;;19.07
17716;BMP280;50159;49.426;11.182;2023-07-13T04:51:06;97563.81;;;19.12
17716;BMP280;50159;49.426;11.182;2023-07-13T04:53:33;97559.84;;;19.16
17716;BMP280;50159;49.426;11.182;2023-07-13T04:56:03;97577.59;;;19.22
17716;BMP280;50159;49.426;11.182;2023-07-13T04:58:30;97572.44;;;19.28
17716;BMP280;50159;49.426;11.182;2023-07-13T05:01:05;97570.75;;;19.35
17716;BMP280;50159;49.426;11.182;2023-07-13T05:03:33;97574.50;;;19.40
17716;BMP280;50159;49.426;11.182;2023-07-13T05:06:05;97576.63;;;19.45
17716;BMP280;50159;49.426;11.182;2023-07-13T05:08:33;97571.94;;;19.54
17716;BMP280;50159;49.426;11.182;2023-07-13T05:11:03;97570.03;;;19.63
17716;BMP280;50159;49.426;11.182;2023-07-13T05:13:30;97574.28;;;19.72
17716;BMP280;50159;49.426;11.182;2023-07-13T05:16:01;97578.97;;;19.84
17716;BMP280;50159;49.426;11.182;2023-07-13T05:18:29;97586.84;;;19.92
17716;BMP280;50159;49.426;11.182;2023-07-13T05:21:03;97591.19;;;19.99
17716;BMP280;50159;49.426;11.182;2023-07-13T05:23:31;97587.19;;;20.03
17716;BMP280;50159;49.426;11.182;2023-07-13T05:25:58;97591.97;;;20.07
17716;BMP280;50159;49.426;11.182;2023-07-13T05:28:27;97593.88;;;20.13
17716;BMP280;50159;49.426;11.182;2023-07-13T05:30:55;97590.03;;;20.16
17716;BMP280;50159;49.426;11.182;2023-07-13T05:33:23;97606.88;;;20.15
17716;BMP280;50159;49.426;11.182;2023-07-13T05:35:50;97601.28;;;20.18
17716;BMP280;50159;49.426;11.182;2023-07-13T05:38:17;97598.00;;;20.30
17716;BMP280;50159;49.426;11.182;2023-07-13T05:40:46;97593.84;;;20.49
17716;BMP280;50159;49.426;11.182;2023-07-13T05:43:13;97593.66;;;20.65
17716;BMP280;50159;49.426;11.182;2023-07-13T05:45:41;97602.78;;;20.77
17716;BMP280;50159;49.426;11.182;2023-07-13T05:48:07;97600.03;;;20.85
17716;BMP280;50159;49.426;11.182;2023-07-13T05:50:34;97607.78;;;20.86
17716;BMP280;50159;49.426;11.182;2023-07-13T05:53:01;97607.59;;;20.87
17716;BMP280;50159;49.426;11.182;2023-07-13T05:55:28;97604.06;;;20.95
17716;BMP280;50159;49.426;11.182;2023-07-13T05:57:55;97608.78;;;20.99
17716;BMP280;50159;49.426;11.182;2023-07-13T06:00:25;97618.16;;;21.02
17716;BMP280;50159;49.426;11.182;2023-07-13T06:02:52;97613.69;;;21.02
17716;BMP280;50159;49.426;11.182;2023-07-13T06:05:19;97608.25;;;21.04
17716;BMP280;50159;49.426;11.182;2023-07-13T06:07:46;97601.13;;;21.04
17716;BMP280;50159;49.426;11.182;2023-07-13T06:10:13;97612.78;;;21.09
17716;BMP280;50159;49.426;11.182;2023-07-13T06:12:40;97615.13;;;21.19
17716;BMP280;50159;49.426;11.182;2023-07-13T06:15:07;97624.63;;;21.28
17716;BMP280;50159;49.426;11.182;2023-07-13T06:17:34;97617.41;;;21.36
17716;BMP280;50159;49.426;11.182;2023-07-13T06:20:02;97619.47;;;21.40
17716;BMP280;50159;49.426;11.182;2023-07-13T06:22:29;97615.47;;;21.44
17716;BMP280;50159;49.426;11.182;2023-07-13T06:24:56;97619.13;;;21.43
17716;BMP280;50159;49.426;11.182;2023-07-13T06:27:22;97621.31;;;21.40
17716;BMP280;50159;49.426;11.182;2023-07-13T06:29:49;97624.34;;;21.37
17716;BMP280;50159;49.426;11.182;2023-07-13T06:32:16;97622.31;;;21.39
17716;BMP280;50159;49.426;11.182;2023-07-13T06:34:43;97624.47;;;21.50
17716;BMP280;50159;49.426;11.182;2023-07-13T06:37:11;97625.44;;;21.63
17716;BMP280;50159;49.426;11.182;2023-07-13T06:39:38;97636.44;;;21.80
17716;BMP280;50159;49.426;11.182;2023-07-13T06:42:06;97635.53;;;21.94
17716;BMP280;50159;49.426;11.182;2023-07-13T06:44:33;97638.16;;;22.08
17716;BMP280;50159;49.426;11.182;2023-07-13T06:46:59;97625.94;;;22.14
17716;BMP280;50159;49.426;11.182;2023-07-13T06:49:26;97631.44;;;22.12
17716;BMP280;50159;49.426;11.182;2023-07-13T06:51:53;97636.31;;;22.09
17716;BMP280;50159;49.426;11.182;2023-07-13T06:54:20;97649.59;;;22.15
17716;BMP280;50159;49.426;11.182;2023-07-13T06:56:47;97646.34;;;22.13
17716;BMP280;50159;49.426;11.182;2023-07-13T06:59:14;97652.31;;;22.01
17716;BMP280;50159;49.426;11.182;2023-07-13T07:01:40;97648.78;;;21.94
17716;BMP280;50159;49.426;11.182;2023-07-13T07:04:07;97653.81;;;21.89
17716;BMP280;50159;49.426;11.182;2023-07-13T07:06:35;97657.22;;;21.83
17716;BMP280;50159;49.426;11.182;2023-07-13T07:09:02;97659.16;;;21.75
17716;BMP280;50159;49.426;11.182;2023-07-13T07:11:29;97658.09;;;21.70
17716;BMP280;50159;49.426;11.182;2023-07-13T07:13:55;97658.91;;;21.91
17716;BMP280;50159;49.426;11.182;2023-07-13T07:16:24;97666.59;;;22.21
17716;BMP280;50159;49.426;11.182;2023-07-13T07:18:51;97667.41;;;22.48
17716;BMP280;50159;49.426;11.182;2023-07-13T07:21:18;97662.31;;;22.67
17716;BMP280;50159;49.426;11.182;2023-07-13T07:23:46;97668.19;;;22.96
17716;BMP280;50159;49.426;11.182;2023-07-13T07:26:12;97663.38;;;23.06
17716;BMP280;50159;49.426;11.182;2023-07-13T07:28:39;97673.38;;;23.10
17716;BMP280;50159;49.426;11.182;2023-07-13T07:31:11;97673.66;;;23.21
17716;BMP280;50159;49.426;11.182;2023-07-13T07:33:41;97677.88;;;23.43
17716;BMP280;50159;49.426;11.182;2023-07-13T07:36:08;97669.56;;;23.65
17716;BMP280;50159;49.426;11.182;2023-07-13T07:38:38;97675.09;;;23.70
17716;BMP280;50159;49.426;11.182;2023-07-13T07:41:05;97686.50;;;23.64
17716;BMP280;50159;49.426;11.182;2023-07-13T07:43:35;97678.19;;;23.73
17716;BMP280;50159;49.426;11.182;2023-07-13T07:46:02;97682.09;;;23.83
17716;BMP280;50159;49.426;11.182;2023-07-13T07:48:31;97685.38;;;23.85
17716;BMP280;50159;49.426;11.182;2023-07-13T07:50:58;97679.41;;;23.71
17716;BMP280;50159;49.426;11.182;2023-07-13T07:53:25;97685.19;;;23.41
17716;BMP280;50159;49.426;11.182;2023-07-13T07:55:51;97692.16;;;23.09
17716;BMP280;50159;49.426;11.182;2023-07-13T07:58:22;97689.75;;;22.87
17716;BMP280;50159;49.426;11.182;2023-07-13T08:00:51;97693.03;;;22.89
17716;BMP280;50159;49.426;11.182;2023-07-13T08:03:21;97694.75;;;23.02
17716;BMP280;50159;49.426;11.182;2023-07-13T08:05:53;97702.38;;;23.12
17716;BMP280;50159;49.426;11.182;2023-07-13T08:08:24;97695.44;;;23.11
17716;BMP280;50159;49.426;11.182;2023-07-13T08:10:51;97694.47;;;23.18
17716;BMP280;50159;49.426;11.182;2023-07-13T08:13:23;97692.97;;;23.42
17716;BMP280;50159;49.426;11.182;2023-07-13T08:15:50;97698.16;;;23.63
17716;BMP280;50159;49.426;11.182;2023-07-13T08:18:17;97689.41;;;23.75
17716;BMP280;50159;49.426;11.182;2023-07-13T08:20:44;97689.03;;;23.91
17716;BMP280;50159;49.426;11.182;2023-07-13T08:23:11;97688.72;;;24.06
17716;BMP280;50159;49.426;11.182;2023-07-13T08:25:38;97696.50;;;24.21
17716;BMP280;50159;49.426;11.182;2023-07-13T08:28:05;97696.53;;;24.33
17716;BMP280;50159;49.426;11.182;2023-07-13T08:30:32;97703.91;;;24.44
17716;BMP280;50159;49.426;11.182;2023-07-13T08:32:59;97706.34;;;24.52
17716;BMP280;50159;49.426;11.182;2023-07-13T08:35:26;97697.34;;;24.66
17716;BMP280;50159;49.426;11.182;2023-07-13T08:37:52;97700.03;;;24.85
17716;BMP280;50159;49.426;11.182;2023-07-13T08:40:25;97686.69;;;25.10
17716;BMP280;50159;49.426;11.182;2023-07-13T08:42:58;97702.63;;;25.23
17716;BMP280;50159;49.426;11.182;2023-07-13T08:45:33;97698.94;;;25.24
17716;BMP280;50159;49.426;11.182;2023-07-13T08:48:13;97698.50;;;25.27
17716;BMP280;50159;49.426;11.182;2023-07-13T08:53:50;97707.31;;;25.34
17716;BMP280;50159;49.426;11.182;2023-07-13T08:56:24;97705.47;;;25.34
17716;BMP280;50159;49.426;11.182;2023-07-13T08:59:02;97707.69;;;25.50
17716;BMP280;50159;49.426;11.182;2023-07-13T09:02:19;97709.91;;;25.53
17716;BMP280;50159;49.426;11.182;2023-07-13T09:16:24;97712.19;;;25.56
17716;BMP280;50159;49.426;11.182;2023-07-13T09:18:58;97714.69;;;25.44
17716;BMP280;50159;49.426;11.182;2023-07-13T09:21:37;97701.97;;;25.34
17716;BMP280;50159;49.426;11.182;2023-07-13T09:26:58;97726.81;;;25.02
17716;BMP280;50159;49.426;11.182;2023-07-13T09:29:33;97721.91;;;24.99
17716;BMP280;50159;49.426;11.182;2023-07-13T09:32:07;97726.81;;;25.02
17716;BMP280;50159;49.426;11.182;2023-07-13T09:34:37;97718.59;;;25.16
17716;BMP280;50159;49.426;11.182;2023-07-13T09:37:04;97719.63;;;25.35
17716;BMP280;50159;49.426;11.182;2023-07-13T09:39:39;97715.28;;;25.34
17716;BMP280;50159;49.426;11.182;2023-07-13T09:42:17;97710.78;;;25.34
17716;BMP280;50159;49.426;11.182;2023-07-13T09:47:24;97714.91;;;25.43
17716;BMP280;50159;49.426;11.182;2023-07-13T09:50:01;97720.34;;;25.61
17716;BMP280;50159;49.426;11.182;2023-07-13T09:52:45;97709.63;;;25.80
17716;BMP280;50159;49.426;11.182;2023-07-13T09:55:33;97702.34;;;26.06
17716;BMP280;50159;49.426;11.182;2023-07-13T09:58:25;97702.13;;;26.37
17716;BMP280;50159;49.426;11.182;2023-07-13T10:00:58;97707.47;;;26.68
17716;BMP280;50159;49.426;11.182;2023-07-13T10:03:33;97697.28;;;26.82
17716;BMP280;50159;49.426;11.182;2023-07-13T10:06:20;97711.22;;;26.54
17716;BMP280;50159;49.426;11.182;2023-07-13T10:08:50;97701.25;;;26.13
17716;BMP280;50159;49.426;11.182;2023-07-13T10:11:26;97692.78;;;26.22
17716;BMP280;50159;49.426;11.182;2023-07-13T10:13:57;97701.66;;;26.47
17716;BMP280;50159;49.426;11.182;2023-07-13T10:16:27;97715.94;;;26.58
17716;BMP280;50159;49.426;11.182;2023-07-13T10:19:06;97706.91;;;26.59
17716;BMP280;50159;49.426;11.182;2023-07-13T10:21:47;97708.00;;;26.76
17716;BMP280;50159;49.426;11.182;2023-07-13T10:24:22;97705.91;;;27.02
17716;BMP280;50159;49.426;11.182;2023-07-13T10:27:16;97704.34;;;27.19
17716;BMP280;50159;49.426;11.182;2023-07-13T10:29:59;97718.53;;;27.37
17716;BMP280;50159;49.426;11.182;2023-07-13T10:32:27;97714.97;;;27.43
17716;BMP280;50159;49.426;11.182;2023-07-13T10:34:56;97726.47;;;27.43
17716;BMP280;50159;49.426;11.182;2023-07-13T10:38:00;97718.97;;;27.51
17716;BMP280;50159;49.426;11.182;2023-07-13T10:40:39;97721.88;;;27.50
17716;BMP280;50159;49.426;11.182;2023-07-13T10:43:28;97721.56;;;27.40
17716;BMP280;50159;49.426;11.182;2023-07-13T10:46:00;97722.81;;;27.20
17716;BMP280;50159;49.426;11.182;2023-07-13T10:48:29;97714.13;;;27.24
17716;BMP280;50159;49.426;11.182;2023-07-13T10:50:59;97720.25;;;27.31
17716;BMP280;50159;49.426;11.182;2023-07-13T10:53:33;97717.78;;;27.30
17716;BMP280;50159;49.426;11.182;2023-07-13T10:58:45;97707.53;;;27.80
17716;BMP280;50159;49.426;11.182;2023-07-13T11:01:16;97710.28;;;27.91
17716;BMP280;50159;49.426;11.182;2023-07-13T11:03:50;97716.06;;;28.06
17716;BMP280;50159;49.426;11.182;2023-07-13T11:06:37;97710.09;;;28.04
17716;BMP280;50159;49.426;11.182;2023-07-13T11:09:34;97717.25;;;27.74
17716;BMP280;50159;49.426;11.182;2023-07-13T11:12:28;97711.03;;;27.98
17716;BMP280;50159;49.426;11.182;2023-07-13T11:17:35;97698.88;;;28.42
17716;BMP280;50159;49.426;11.182;2023-07-13T11:22:51;97705.38;;;28.86
17716;BMP280;50159;49.426;11.182;2023-07-13T11:28:21;97696.28;;;28.87
17716;BMP280;50159;49.426;11.182;2023-07-13T11:33:48;97696.69;;;28.21
17716;BMP280;50159;49.426;11.182;2023-07-13T11:36:19;97698.28;;;27.82
17716;BMP280;50159;49.426;11.182;2023-07-13T11:39:23;97710.59;;;27.48
17716;BMP280;50159;49.426;11.182;2023-07-13T11:41:58;97701.00;;;27.76
17716;BMP280;50159;49.426;11.182;2023-07-13T11:44:29;97691.69;;;28.25
17716;BMP280;50159;49.426;11.182;2023-07-13T11:47:19;97699.88;;;28.70
17716;BMP280;50159;49.426;11.182;2023-07-13T11:49:53;97696.41;;;28.69
17716;BMP280;50159;49.426;11.182;2023-07-13T11:52:33;97689.34;;;28.46
17716;BMP280;50159;49.426;11.182;2023-07-13T11:55:03;97693.88;;;28.34
17716;BMP280;50159;49.426;11.182;2023-07-13T11:57:34;97688.50;;;28.34
17716;BMP280;50159;49.426;11.182;2023-07-13T12:00:26;97687.16;;;28.25
17716;BMP280;50159;49.426;11.182;2023-07-13T12:02:59;97684.81;;;28.46
17716;BMP280;50159;49.426;11.182;2023-07-13T12:05:27;97686.72;;;28.79
17716;BMP280;50159;49.426;11.182;2023-07-13T12:07:54;97686.75;;;29.13
17716;BMP280;50159;49.426;11.182;2023-07-13T12:10:26;97691.53;;;29.23
17716;BMP280;50159;49.426;11.182;2023-07-13T12:13:02;97673.25;;;29.20
17716;BMP280;50159;49.426;11.182;2023-07-13T12:15:43;97682.91;;;29.32
17716;BMP280;50159;49.426;11.182;2023-07-13T12:18:19;97691.66;;;29.50
17716;BMP280;50159;49.426;11.182;2023-07-13T12:20:48;97685.59;;;29.21
17716;BMP280;50159;49.426;11.182;2023-07-13T12:23:47;97673.38;;;29.02
17716;BMP280;50159;49.426;11.182;2023-07-13T12:26:17;97680.91;;;28.71
17716;BMP280;50159;49.426;11.182;2023-07-13T12:28:48;97684.91;;;28.40
17716;BMP280;50159;49.426;11.182;2023-07-13T12:31:40;97681.34;;;28.28
17716;BMP280;50159;49.426;11.182;2023-07-13T12:34:11;97689.22;;;28.41
17716;BMP280;50159;49.426;11.182;2023-07-13T12:36:54;97682.03;;;28.53
17716;BMP280;50159;49.426;11.182;2023-07-13T12:39:36;97677.34;;;28.37
17716;BMP280;50159;49.426;11.182;2023-07-13T12:45:03;97683.28;;;29.02
17716;BMP280;50159;49.426;11.182;2023-07-13T12:47:41;97675.81;;;29.26
17716;BMP280;50159;49.426;11.182;2023-07-13T12:50:22;97682.41;;;28.78
17716;BMP280;50159;49.426;11.182;2023-07-13T12:52:54;97679.69;;;28.45
17716;BMP280;50159;49.426;11.182;2023-07-13T12:55:23;97680.63;;;28.50
17716;BMP280;50159;49.426;11.182;2023-07-13T12:57:56;97678.50;;;28.92
17716;BMP280;50159;49.426;11.182;2023-07-13T13:00:33;97679.69;;;29.19
17716;BMP280;50159;49.426;11.182;2023-07-13T13:03:22;97672.56;;;29.02
17716;BMP280;50159;49.426;11.182;2023-07-13T13:06:27;97675.66;;;28.76
17716;BMP280;50159;49.426;11.182;2023-07-13T13:08:58;97672.38;;;28.63
17716;BMP280;50159;49.426;11.182;2023-07-13T13:11:31;97656.44;;;28.57
17716;BMP280;50159;49.426;11.182;2023-07-13T13:13:58;97670.19;;;28.71
17716;BMP280;50159;49.426;11.182;2023-07-13T13:16:47;97678.28;;;28.94
17716;BMP280;50159;49.426;11.182;2023-07-13T13:19:28;97655.88;;;29.33
17716;BMP280;50159;49.426;11.182;2023-07-13T13:21:56;97663.84;;;29.67
17716;BMP280;50159;49.426;11.182;2023-07-13T13:24:27;97662.19;;;29.77
17716;BMP280;50159;49.426;11.182;2023-07-13T13:26:55;97657.00;;;29.60
17716;BMP280;50159;49.426;11.182;2023-07-13T13:29:27;97649.59;;;29.28
17716;BMP280;50159;49.426;11.182;2023-07-13T13:31:55;97644.84;;;29.19
17716;BMP280;50159;49.426;11.182;2023-07-13T13:34:24;97651.78;;;29.53
17716;BMP280;50159;49.426;11.182;2023-07-13T13:36:54;97663.53;;;30.02
17716;BMP280;50159;49.426;11.182;2023-07-13T13:39:34;97656.41;;;30.08
17716;BMP280;50159;49.426;11.182;2023-07-13T13:42:01;97654.66;;;29.63
17716;BMP280;50159;49.426;11.182;2023-07-13T13:44:28;97654.84;;;29.01
17716;BMP280;50159;49.426;11.182;2023-07-13T13:46:56;97664.47;;;28.57
17716;BMP280;50159;49.426;11.182;2023-07-13T13:49:26;97658.31;;;28.56
17716;BMP280;50159;49.426;11.182;2023-07-13T13:51:54;97655.09;;;29.10
17716;BMP280;50159;49.426;11.182;2023-07-13T13:54:23;97648.00;;;29.66
17716;BMP280;50159;49.426;11.182;2023-07-13T13:56:52;97648.72;;;30.00
17716;BMP280;50159;49.426;11.182;2023-07-13T13:59:19;97640.41;;;29.74
17716;BMP280;50159;49.426;11.182;2023-07-13T14:01:48;97637.69;;;29.58
17716;BMP280;50159;49.426;11.182;2023-07-13T14:04:21;97648.34;;;29.80
17716;BMP280;50159;49.426;11.182;2023-07-13T14:06:49;97645.94;;;30.22
17716;BMP280;50159;49.426;11.182;2023-07-13T14:09:19;97644.56;;;30.36
17716;BMP280;50159;49.426;11.182;2023-07-13T14:11:49;97645.38;;;30.37
17716;BMP280;50159;49.426;11.182;2023-07-13T14:14:22;97654.13;;;30.16
17716;BMP280;50159;49.426;11.182;2023-07-13T14:16:51;97642.31;;;29.62
17716;BMP280;50159;49.426;11.182;2023-07-13T14:19:21;97645.78;;;29.02
17716;BMP280;50159;49.426;11.182;2023-07-13T14:21:47;97661.91;;;28.61
17716;BMP280;50159;49.426;11.182;2023-07-13T14:24:16;97654.81;;;28.78
17716;BMP280;50159;49.426;11.182;2023-07-13T14:26:43;97645.66;;;29.08
17716;BMP280;50159;49.426;11.182;2023-07-13T14:29:19;97650.38;;;29.40
17716;BMP280;50159;49.426;11.182;2023-07-13T14:31:50;97655.66;;;29.35
17716;BMP280;50159;49.426;11.182;2023-07-13T14:34:17;97660.31;;;28.72
17716;BMP280;50159;49.426;11.182;2023-07-13T14:36:47;97659.47;;;28.20
17716;BMP280;50159;49.426;11.182;2023-07-13T14:39:19;97655.78;;;27.74
17716;BMP280;50159;49.426;11.182;2023-07-13T14:41:53;97656.84;;;27.56
17716;BMP280;50159;49.426;11.182;2023-07-13T14:44:24;97659.31;;;27.57
17716;BMP280;50159;49.426;11.182;2023-07-13T14:46:52;97656.25;;;27.54
17716;BMP280;50159;49.426;11.182;2023-07-13T14:49:31;97654.78;;;27.58
17716;BMP280;50159;49.426;11.182;2023-07-13T14:52:01;97662.34;;;27.61
17716;BMP280;50159;49.426;11.182;2023-07-13T14:54:28;97652.13;;;29.95